Terminal Aerodrome Forecast
Issued by NWS Bismarck, ND

Home | Current Version | Previous Version | Text Only | Print | Product List | Glossary On
Versions: 1 2 3 4 5 6 7 8 9 10 11 12 13 14 15 16
368
FTUS43 KBIS 251138
TAFBIS
TAF
KBIS 251138Z 2512/2612 24005KT P6SM SKC
     FM251600 22017G27KT P6SM SCT200
     FM260100 25013G23KT P6SM BKN250
     FM260200 33011G21KT P6SM VCSH BKN100
     FM260600 35016G24KT P6SM SCT080=

USA.gov is the U.S. government's official web portal to all federal, state and local government web resources and services.